createdAt,value
2018-04-22T00:00:42.191Z,8.00
2018-04-22T00:01:42.201Z,8.00
2018-04-22T00:02:42.203Z,8.00
2018-04-22T00:03:42.194Z,8.00
2018-04-22T00:04:42.198Z,8.00
2018-04-22T00:05:42.195Z,8.00
2018-04-22T00:06:43.187Z,8.00
2018-04-22T00:07:42.200Z,8.00
2018-04-22T00:08:42.210Z,8.00
2018-04-22T00:09:42.197Z,8.00
2018-04-22T00:10:42.201Z,8.00
2018-04-22T00:11:42.202Z,8.00
2018-04-22T00:12:42.201Z,8.00
2018-04-22T00:13:42.202Z,8.00
2018-04-22T00:14:42.205Z,8.00
2018-04-22T00:15:42.222Z,8.00
2018-04-22T00:16:42.207Z,8.00
2018-04-22T00:17:42.209Z,8.00
2018-04-22T00:18:42.209Z,8.00
2018-04-22T00:19:42.208Z,8.00
2018-04-22T00:20:42.209Z,8.00
2018-04-22T00:21:43.345Z,8.00
2018-04-22T00:22:42.210Z,8.00
2018-04-22T00:23:42.209Z,8.00
2018-04-22T00:24:42.209Z,8.00
2018-04-22T00:25:42.206Z,8.00
2018-04-22T00:26:42.214Z,8.00
2018-04-22T00:27:42.374Z,8.00
2018-04-22T00:28:42.214Z,8.00
2018-04-22T00:29:42.231Z,8.00
2018-04-22T00:30:42.685Z,8.00
2018-04-22T00:31:42.215Z,8.00
2018-04-22T00:32:42.212Z,8.00
2018-04-22T00:33:42.215Z,8.00
2018-04-22T00:34:42.240Z,8.00
2018-04-22T00:35:42.351Z,8.00
2018-04-22T00:36:42.226Z,8.00
2018-04-22T00:37:43.138Z,8.00
2018-04-22T00:38:43.074Z,8.00
2018-04-22T00:39:42.214Z,8.00
2018-04-22T00:40:42.572Z,8.00
2018-04-22T00:41:42.218Z,8.00
2018-04-22T00:42:42.223Z,8.00
2018-04-22T00:43:42.313Z,8.00
2018-04-22T00:44:42.478Z,8.00
2018-04-22T00:45:42.229Z,8.00
2018-04-22T00:46:42.217Z,8.00
2018-04-22T00:47:42.232Z,8.00
2018-04-22T00:48:42.219Z,8.00
2018-04-22T00:49:42.218Z,8.00
2018-04-22T00:50:42.220Z,8.00
2018-04-22T00:51:42.221Z,8.00
2018-04-22T00:52:42.220Z,8.00
2018-04-22T00:53:42.225Z,8.00
2018-04-22T00:54:42.249Z,8.00
2018-04-22T00:55:42.220Z,8.00
2018-04-22T00:56:44.159Z,8.00
2018-04-22T00:57:42.222Z,8.00
2018-04-22T00:58:42.225Z,8.00
2018-04-22T00:59:42.231Z,8.00
2018-04-22T01:00:42.224Z,8.00
2018-04-22T01:01:42.223Z,8.00
2018-04-22T01:02:42.224Z,8.00
2018-04-22T01:03:42.222Z,8.00
2018-04-22T01:04:42.223Z,8.00
2018-04-22T01:05:42.225Z,8.00
2018-04-22T01:06:42.244Z,8.00
2018-04-22T01:07:42.265Z,8.00
2018-04-22T01:08:42.228Z,8.00
2018-04-22T01:09:42.287Z,8.00
2018-04-22T01:10:42.316Z,8.00
2018-04-22T01:11:42.226Z,8.00
2018-04-22T01:12:42.228Z,8.00
2018-04-22T01:13:42.232Z,8.00
2018-04-22T01:14:42.228Z,8.00
2018-04-22T01:15:42.225Z,8.00
2018-04-22T01:16:42.230Z,8.00
2018-04-22T01:17:42.228Z,8.00
2018-04-22T01:18:42.263Z,8.00
2018-04-22T01:19:42.237Z,8.00
2018-04-22T01:20:42.238Z,8.00
2018-04-22T01:21:42.244Z,8.00
2018-04-22T01:22:42.227Z,8.00
2018-04-22T01:23:42.316Z,8.00
2018-04-22T01:24:42.240Z,8.00
2018-04-22T01:25:42.226Z,8.00
2018-04-22T01:26:42.232Z,8.00
2018-04-22T01:27:42.230Z,8.00
2018-04-22T01:28:42.238Z,8.00
2018-04-22T01:29:42.232Z,8.00
2018-04-22T01:30:42.228Z,8.00
2018-04-22T01:31:42.228Z,8.00
2018-04-22T01:32:42.232Z,8.00
2018-04-22T01:33:42.227Z,8.00
2018-04-22T01:34:42.228Z,8.00
2018-04-22T01:35:44.173Z,8.00
2018-04-22T01:36:42.233Z,8.00
2018-04-22T01:37:42.228Z,8.00
2018-04-22T01:38:42.475Z,8.00
2018-04-22T01:39:44.238Z,8.00
2018-04-22T01:40:42.260Z,8.00
2018-04-22T01:41:42.237Z,8.00
2018-04-22T01:42:42.558Z,8.00
2018-04-22T01:43:42.311Z,8.00
2018-04-22T01:44:42.232Z,8.00
2018-04-22T01:45:42.228Z,8.00
2018-04-22T01:46:42.228Z,8.00
2018-04-22T01:47:42.233Z,8.00
2018-04-22T01:48:42.231Z,8.00
2018-04-22T01:49:42.244Z,8.00
2018-04-22T01:50:42.232Z,8.00
2018-04-22T01:51:42.230Z,8.00
2018-04-22T01:52:42.229Z,8.00
2018-04-22T01:53:42.232Z,8.00
2018-04-22T01:54:42.237Z,8.00
2018-04-22T01:55:42.232Z,8.00
2018-04-22T01:56:42.230Z,8.00
2018-04-22T01:57:42.233Z,8.00
2018-04-22T01:58:42.233Z,8.00
2018-04-22T01:59:42.232Z,8.00
2018-04-22T02:00:42.235Z,8.00
2018-04-22T02:01:42.229Z,8.00
2018-04-22T02:02:42.228Z,8.00
2018-04-22T02:03:42.229Z,8.00
2018-04-22T02:04:42.229Z,8.00
2018-04-22T02:05:42.227Z,8.00
2018-04-22T02:06:42.226Z,8.00
2018-04-22T02:07:42.226Z,8.00
2018-04-22T02:08:42.790Z,8.00
2018-04-22T02:09:42.876Z,8.00
2018-04-22T02:10:42.225Z,8.00
2018-04-22T02:11:42.225Z,8.00
2018-04-22T02:12:42.229Z,8.00
2018-04-22T02:13:42.240Z,8.00
2018-04-22T02:14:44.174Z,8.00
2018-04-22T02:15:42.225Z,8.00
2018-04-22T02:16:42.224Z,8.00
2018-04-22T02:17:42.225Z,8.00
2018-04-22T02:18:45.171Z,8.00
2018-04-22T02:19:42.223Z,8.00
2018-04-22T02:20:42.223Z,8.00
2018-04-22T02:21:42.236Z,8.00
2018-04-22T02:22:42.222Z,8.00
2018-04-22T02:23:42.222Z,8.00
2018-04-22T02:24:42.223Z,8.00
2018-04-22T02:25:42.224Z,8.00
2018-04-22T02:26:42.221Z,8.00
2018-04-22T02:27:42.223Z,8.00
2018-04-22T02:28:42.221Z,8.00
2018-04-22T02:29:42.219Z,8.00
2018-04-22T02:30:42.220Z,8.00
2018-04-22T02:31:42.219Z,8.00
2018-04-22T02:32:42.220Z,8.00
2018-04-22T02:33:42.216Z,8.00
2018-04-22T02:34:42.234Z,8.00
2018-04-22T02:35:42.221Z,8.00
2018-04-22T02:36:42.241Z,8.00
2018-04-22T02:37:42.215Z,8.00
2018-04-22T02:38:42.216Z,8.00
2018-04-22T02:39:42.227Z,8.00
2018-04-22T02:40:42.218Z,8.00
2018-04-22T02:41:42.215Z,8.00
2018-04-22T02:42:42.211Z,8.00
2018-04-22T02:43:42.216Z,8.00
2018-04-22T02:44:42.215Z,8.00
2018-04-22T02:45:42.211Z,8.00
2018-04-22T02:46:42.210Z,8.00
2018-04-22T02:47:42.212Z,8.00
2018-04-22T02:48:42.208Z,8.00
2018-04-22T02:49:42.207Z,8.00
2018-04-22T02:50:42.207Z,8.00
2018-04-22T02:51:42.207Z,8.00
2018-04-22T02:52:42.207Z,8.00
2018-04-22T02:53:42.204Z,8.00
2018-04-22T02:54:42.209Z,8.00
2018-04-22T02:55:42.205Z,8.00
2018-04-22T02:56:42.205Z,8.00
2018-04-22T02:57:42.201Z,8.00
2018-04-22T02:58:42.201Z,8.00
2018-04-22T02:59:42.202Z,8.00
2018-04-22T03:00:42.201Z,8.00
2018-04-22T03:01:42.198Z,8.00
2018-04-22T03:02:42.198Z,8.00
2018-04-22T03:03:42.198Z,8.00
2018-04-22T03:04:42.198Z,8.00
2018-04-22T03:05:42.196Z,8.00
2018-04-22T03:06:42.195Z,8.00
2018-04-22T03:07:42.195Z,8.00
2018-04-22T03:08:42.197Z,8.00
2018-04-22T03:09:42.194Z,8.00
2018-04-22T03:10:42.196Z,8.00
2018-04-22T03:11:42.191Z,8.00
2018-04-22T03:12:42.190Z,8.00
2018-04-22T03:13:42.229Z,8.00
2018-04-22T03:14:42.191Z,8.00
2018-04-22T03:15:42.189Z,8.00
2018-04-22T03:16:42.191Z,8.00
2018-04-22T03:17:42.197Z,8.00
2018-04-22T03:18:42.188Z,8.00
2018-04-22T03:19:42.184Z,8.00
2018-04-22T03:20:42.196Z,8.00
2018-04-22T03:21:42.184Z,8.00
2018-04-22T03:22:42.188Z,8.00
2018-04-22T03:23:42.181Z,8.00
2018-04-22T03:24:42.181Z,8.00
2018-04-22T03:25:42.181Z,8.00
2018-04-22T03:26:42.178Z,8.00
2018-04-22T03:27:42.178Z,8.00
2018-04-22T03:28:42.178Z,8.00
2018-04-22T03:29:42.177Z,8.00
2018-04-22T03:30:42.174Z,8.00
2018-04-22T03:31:42.181Z,8.00
2018-04-22T03:32:42.173Z,8.00
2018-04-22T03:33:42.171Z,4.00
2018-04-22T03:34:42.173Z,4.00
2018-04-22T03:35:42.177Z,8.00
2018-04-22T03:36:42.170Z,8.00
2018-04-22T03:37:42.168Z,8.00
2018-04-22T03:38:42.173Z,8.00
2018-04-22T03:39:42.166Z,8.00
2018-04-22T03:40:42.167Z,8.00
2018-04-22T03:41:42.167Z,8.00
2018-04-22T03:42:42.178Z,8.00
2018-04-22T03:43:42.165Z,8.00
2018-04-22T03:44:42.163Z,8.00
2018-04-22T03:45:42.162Z,4.00
2018-04-22T03:46:42.163Z,8.00
2018-04-22T03:47:42.160Z,8.00
2018-04-22T03:48:42.162Z,8.00
2018-04-22T03:49:42.158Z,8.00
2018-04-22T03:50:42.159Z,8.00
2018-04-22T03:51:42.156Z,16.00
2018-04-22T03:52:42.156Z,16.00
2018-04-22T03:53:42.156Z,16.00
2018-04-22T03:54:42.153Z,16.00
2018-04-22T03:55:42.157Z,20.00
2018-04-22T03:56:42.151Z,24.00
2018-04-22T03:57:42.150Z,24.00
2018-04-22T03:58:42.157Z,28.00
2018-04-22T03:59:42.148Z,32.00
2018-04-22T04:00:42.153Z,36.00
2018-04-22T04:01:42.147Z,36.00
2018-04-22T04:02:42.147Z,44.00
2018-04-22T04:03:42.144Z,44.00
2018-04-22T04:04:42.144Z,48.00
2018-04-22T04:05:42.140Z,52.00
2018-04-22T04:06:42.140Z,56.00
2018-04-22T04:07:42.140Z,60.00
2018-04-22T04:08:42.137Z,64.00
2018-04-22T04:09:42.165Z,64.00
2018-04-22T04:10:42.134Z,68.00
2018-04-22T04:11:42.133Z,76.00
2018-04-22T04:12:42.567Z,80.00
2018-04-22T04:13:42.131Z,84.00
2018-04-22T04:14:42.129Z,88.00
2018-04-22T04:15:42.129Z,92.00
2018-04-22T04:16:42.130Z,96.00
2018-04-22T04:17:42.131Z,104.00
2018-04-22T04:18:42.137Z,104.00
2018-04-22T04:19:42.123Z,112.00
2018-04-22T04:20:42.122Z,116.00
2018-04-22T04:21:42.125Z,124.00
2018-04-22T04:22:42.119Z,128.00
2018-04-22T04:23:42.120Z,132.00
2018-04-22T04:24:42.117Z,140.00
2018-04-22T04:25:42.117Z,144.00
2018-04-22T04:26:42.115Z,152.00
2018-04-22T04:27:42.113Z,164.00
2018-04-22T04:28:42.114Z,176.00
2018-04-22T04:29:42.111Z,196.00
2018-04-22T04:30:42.314Z,212.00
2018-04-22T04:31:42.110Z,232.00
2018-04-22T04:32:42.629Z,252.00
2018-04-22T04:33:43.285Z,268.00
2018-04-22T04:34:42.105Z,284.00
2018-04-22T04:35:42.106Z,308.00
2018-04-22T04:36:42.105Z,328.00
2018-04-22T04:37:42.100Z,348.00
2018-04-22T04:38:42.099Z,364.00
2018-04-22T04:39:42.102Z,364.00
2018-04-22T04:40:42.104Z,356.00
2018-04-22T04:41:42.157Z,352.00
2018-04-22T04:42:42.094Z,344.00
2018-04-22T04:43:43.188Z,344.00
2018-04-22T04:44:42.671Z,360.00
2018-04-22T04:45:42.184Z,368.00
2018-04-22T04:46:43.145Z,360.00
2018-04-22T04:47:42.432Z,376.00
2018-04-22T04:48:42.097Z,400.00
2018-04-22T04:49:42.086Z,388.00
2018-04-22T04:50:42.111Z,408.00
2018-04-22T04:51:42.084Z,432.00
2018-04-22T04:52:42.082Z,456.00
2018-04-22T04:53:42.081Z,460.00
2018-04-22T04:54:42.084Z,464.00
2018-04-22T04:55:42.083Z,484.00
2018-04-22T04:56:42.083Z,496.00
2018-04-22T04:57:42.111Z,524.00
2018-04-22T04:58:42.144Z,560.00
2018-04-22T04:59:42.083Z,568.00
2018-04-22T05:00:42.088Z,572.00
2018-04-22T05:01:42.122Z,564.00
2018-04-22T05:02:42.118Z,556.00
2018-04-22T05:03:42.071Z,564.00
2018-04-22T05:04:42.091Z,572.00
2018-04-22T05:05:42.069Z,588.00
2018-04-22T05:06:42.089Z,572.00
2018-04-22T05:07:42.069Z,568.00
2018-04-22T05:08:42.113Z,576.00
2018-04-22T05:09:42.067Z,576.00
2018-04-22T05:10:42.073Z,580.00
2018-04-22T05:11:42.067Z,608.00
2018-04-22T05:12:42.063Z,608.00
2018-04-22T05:13:42.061Z,624.00
2018-04-22T05:14:42.065Z,652.00
2018-04-22T05:15:42.060Z,648.00
2018-04-22T05:16:42.059Z,664.00
2018-04-22T05:17:42.057Z,672.00
2018-04-22T05:18:42.110Z,728.00
2018-04-22T05:19:42.064Z,748.00
2018-04-22T05:20:42.057Z,780.00
2018-04-22T05:21:42.055Z,812.00
2018-04-22T05:22:42.055Z,840.00
2018-04-22T05:23:42.054Z,840.00
2018-04-22T05:24:42.053Z,836.00
2018-04-22T05:25:42.052Z,820.00
2018-04-22T05:26:42.053Z,816.00
2018-04-22T05:27:42.051Z,836.00
2018-04-22T05:28:42.052Z,832.00
2018-04-22T05:29:42.049Z,860.00
2018-04-22T05:30:42.050Z,872.00
2018-04-22T05:31:42.049Z,920.00
2018-04-22T05:32:42.050Z,972.00
2018-04-22T05:33:42.049Z,996.00
2018-04-22T05:34:42.049Z,1024.00
2018-04-22T05:35:42.046Z,972.00
2018-04-22T05:36:42.045Z,912.00
2018-04-22T05:37:42.044Z,880.00
2018-04-22T05:38:42.044Z,900.00
2018-04-22T05:39:42.044Z,916.00
2018-04-22T05:40:42.049Z,940.00
2018-04-22T05:41:42.068Z,960.00
2018-04-22T05:42:42.092Z,1004.00
2018-04-22T05:43:42.038Z,1028.00
2018-04-22T05:44:42.043Z,1048.00
2018-04-22T05:45:42.037Z,1052.00
2018-04-22T05:46:42.036Z,1048.00
2018-04-22T05:47:42.036Z,1084.00
2018-04-22T05:48:42.057Z,1124.00
2018-04-22T05:49:42.034Z,1152.00
2018-04-22T05:50:42.033Z,1136.00
2018-04-22T05:51:42.034Z,1152.00
2018-04-22T05:52:42.033Z,1160.00
2018-04-22T05:53:42.033Z,1184.00
2018-04-22T05:54:42.033Z,1196.00
2018-04-22T05:55:42.031Z,1252.00
2018-04-22T05:56:42.029Z,1272.00
2018-04-22T05:57:42.033Z,1316.00
2018-04-22T05:58:42.030Z,1332.00
2018-04-22T05:59:42.032Z,1332.00
2018-04-22T06:00:42.030Z,1364.00
2018-04-22T06:01:42.035Z,1360.00
2018-04-22T06:02:42.035Z,1344.00
2018-04-22T06:03:42.027Z,1360.00
2018-04-22T06:04:42.025Z,1324.00
2018-04-22T06:05:42.025Z,1292.00
2018-04-22T06:06:42.023Z,1356.00
2018-04-22T06:07:42.025Z,1352.00
2018-04-22T06:08:42.023Z,1360.00
2018-04-22T06:09:42.023Z,1420.00
2018-04-22T06:10:42.022Z,1392.00
2018-04-22T06:11:42.021Z,1380.00
2018-04-22T06:12:42.022Z,1384.00
2018-04-22T06:13:42.020Z,1372.00
2018-04-22T06:14:42.020Z,1428.00
2018-04-22T06:15:42.189Z,1508.00
2018-04-22T06:16:42.021Z,1528.00
2018-04-22T06:17:42.017Z,1580.00
2018-04-22T06:18:42.017Z,1564.00
2018-04-22T06:19:42.017Z,1660.00
2018-04-22T06:20:42.020Z,1800.00
2018-04-22T06:21:42.019Z,1904.00
2018-04-22T06:22:42.018Z,1944.00
2018-04-22T06:23:42.016Z,2040.00
2018-04-22T06:24:42.016Z,2096.00
2018-04-22T06:25:42.017Z,2196.00
2018-04-22T06:26:42.016Z,2328.00
2018-04-22T06:27:42.014Z,2312.00
2018-04-22T06:28:42.017Z,2256.00
2018-04-22T06:29:42.012Z,2192.00
2018-04-22T06:30:42.013Z,2144.00
2018-04-22T06:31:42.031Z,2220.00
2018-04-22T06:32:42.012Z,2240.00
2018-04-22T06:33:42.010Z,2312.00
2018-04-22T06:34:42.152Z,2316.00
2018-04-22T06:35:42.010Z,2184.00
2018-04-22T06:36:42.013Z,2140.00
2018-04-22T06:37:42.009Z,2140.00
2018-04-22T06:38:42.009Z,2148.00
2018-04-22T06:39:42.013Z,2100.00
2018-04-22T06:40:42.012Z,2056.00
2018-04-22T06:41:42.007Z,2112.00
2018-04-22T06:42:42.012Z,2088.00
2018-04-22T06:43:42.008Z,2048.00
2018-04-22T06:44:42.032Z,2156.00
2018-04-22T06:45:42.009Z,2272.00
2018-04-22T06:46:42.592Z,2384.00
2018-04-22T06:47:42.010Z,2420.00
2018-04-22T06:48:42.008Z,2448.00
2018-04-22T06:49:42.015Z,2464.00
2018-04-22T06:50:42.008Z,2412.00
2018-04-22T06:51:42.012Z,2472.00
2018-04-22T06:52:42.008Z,2556.00
2018-04-22T06:53:42.007Z,2484.00
2018-04-22T06:54:42.007Z,2524.00
2018-04-22T06:55:42.492Z,2564.00
2018-04-22T06:56:42.008Z,2468.00
2018-04-22T06:57:42.012Z,2528.00
2018-04-22T06:58:42.039Z,2652.00
2018-04-22T06:59:42.009Z,2692.00
2018-04-22T07:00:42.008Z,2760.00
2018-04-22T07:01:42.010Z,2688.00
2018-04-22T07:02:42.008Z,2636.00
2018-04-22T07:03:42.011Z,2584.00
2018-04-22T07:04:42.013Z,2512.00
2018-04-22T07:05:42.009Z,2408.00
2018-04-22T07:06:42.012Z,2304.00
2018-04-22T07:07:42.012Z,2260.00
2018-04-22T07:08:42.013Z,2196.00
2018-04-22T07:09:42.011Z,2132.00
2018-04-22T07:10:42.015Z,2124.00
2018-04-22T07:11:42.013Z,2088.00
2018-04-22T07:12:42.023Z,2060.00
2018-04-22T07:13:42.016Z,2052.00
2018-04-22T07:14:42.013Z,2040.00
2018-04-22T07:15:42.016Z,2028.00
2018-04-22T07:16:42.038Z,1992.00
2018-04-22T07:17:42.013Z,1984.00
2018-04-22T07:18:42.015Z,1976.00
2018-04-22T07:19:42.015Z,1972.00
2018-04-22T07:20:42.017Z,1968.00
2018-04-22T07:21:42.016Z,1960.00
2018-04-22T07:22:42.091Z,1956.00
2018-04-22T07:23:42.016Z,1940.00
2018-04-22T07:24:42.020Z,1948.00
2018-04-22T07:25:42.017Z,1948.00
2018-04-22T07:26:42.017Z,1940.00
2018-04-22T07:27:42.017Z,1932.00
2018-04-22T07:28:42.018Z,1936.00
2018-04-22T07:29:42.019Z,1928.00
2018-04-22T07:30:42.018Z,1936.00
2018-04-22T07:31:42.018Z,1936.00
2018-04-22T07:32:42.021Z,1936.00
2018-04-22T07:33:42.018Z,1936.00
2018-04-22T07:34:42.019Z,1936.00
2018-04-22T07:35:42.019Z,1936.00
2018-04-22T07:36:42.020Z,1932.00
2018-04-22T07:37:42.022Z,1928.00
2018-04-22T07:38:42.022Z,1928.00
2018-04-22T07:39:42.021Z,1924.00
2018-04-22T07:40:42.053Z,1928.00
2018-04-22T07:41:42.026Z,1928.00
2018-04-22T07:42:42.022Z,1936.00
2018-04-22T07:43:42.025Z,1932.00
2018-04-22T07:44:42.025Z,1932.00
2018-04-22T07:45:42.025Z,1928.00
2018-04-22T07:46:42.023Z,1928.00
2018-04-22T07:47:42.024Z,1920.00
2018-04-22T07:48:42.026Z,1928.00
2018-04-22T07:49:42.025Z,1924.00
2018-04-22T07:50:42.027Z,1928.00
2018-04-22T07:51:42.031Z,1928.00
2018-04-22T07:52:42.029Z,1932.00
2018-04-22T07:53:42.028Z,1940.00
2018-04-22T07:54:42.037Z,1944.00
2018-04-22T07:55:42.031Z,1948.00
2018-04-22T07:56:42.032Z,1944.00
2018-04-22T07:57:42.031Z,1948.00
2018-04-22T07:58:42.032Z,1956.00
2018-04-22T07:59:42.033Z,1960.00
2018-04-22T08:00:42.035Z,1956.00
2018-04-22T08:01:42.035Z,1960.00
2018-04-22T08:02:42.039Z,1960.00
2018-04-22T08:03:42.037Z,1964.00
2018-04-22T08:04:42.038Z,1960.00
2018-04-22T08:05:42.039Z,1972.00
2018-04-22T08:06:42.091Z,1976.00
2018-04-22T08:07:42.041Z,1976.00
2018-04-22T08:08:42.042Z,1980.00
2018-04-22T08:09:42.042Z,1992.00
2018-04-22T08:10:42.044Z,1992.00
2018-04-22T08:11:42.049Z,2004.00
2018-04-22T08:12:42.048Z,2012.00
2018-04-22T08:13:42.047Z,2020.00
2018-04-22T08:14:42.049Z,2028.00
2018-04-22T08:15:42.053Z,2032.00
2018-04-22T08:16:42.056Z,2028.00
2018-04-22T08:17:42.059Z,2032.00
2018-04-22T08:18:42.055Z,2040.00
2018-04-22T08:19:42.056Z,2048.00
2018-04-22T08:20:42.058Z,2060.00
2018-04-22T08:21:42.061Z,2068.00
2018-04-22T08:22:42.060Z,2080.00
2018-04-22T08:23:42.072Z,2084.00
2018-04-22T08:24:42.067Z,2092.00
2018-04-22T08:25:42.068Z,2104.00
2018-04-22T08:26:42.067Z,2116.00
2018-04-22T08:27:42.069Z,2128.00
2018-04-22T08:28:42.075Z,2140.00
2018-04-22T08:29:42.072Z,2152.00
2018-04-22T08:30:42.075Z,2152.00
2018-04-22T08:31:42.077Z,2164.00
2018-04-22T08:32:42.077Z,2180.00
2018-04-22T08:33:42.079Z,2212.00
2018-04-22T08:34:42.081Z,2208.00
2018-04-22T08:35:42.085Z,2224.00
2018-04-22T08:36:42.085Z,2232.00
2018-04-22T08:37:42.087Z,2240.00
2018-04-22T08:38:42.092Z,2260.00
2018-04-22T08:39:42.092Z,2280.00
2018-04-22T08:40:42.093Z,2292.00
2018-04-22T08:41:42.095Z,2304.00
2018-04-22T08:42:42.099Z,2324.00
2018-04-22T08:43:42.101Z,2336.00
2018-04-22T08:44:42.118Z,2348.00
2018-04-22T08:45:42.277Z,2360.00
2018-04-22T08:46:42.107Z,2384.00
2018-04-22T08:47:42.109Z,2404.00
2018-04-22T08:48:42.116Z,2436.00
2018-04-22T08:49:42.375Z,2448.00
2018-04-22T08:50:42.154Z,2480.00
2018-04-22T08:51:42.119Z,2500.00
2018-04-22T08:52:42.122Z,2524.00
2018-04-22T08:53:42.122Z,2544.00
2018-04-22T08:54:42.198Z,2572.00
2018-04-22T08:55:42.130Z,2592.00
2018-04-22T08:56:42.164Z,2616.00
2018-04-22T08:57:42.133Z,2636.00
2018-04-22T08:58:42.135Z,3016.00
2018-04-22T08:59:42.140Z,3112.00
2018-04-22T09:00:42.142Z,2744.00
2018-04-22T09:01:42.144Z,2736.00
2018-04-22T09:02:42.146Z,2748.00
2018-04-22T09:03:42.150Z,2772.00
2018-04-22T09:04:42.153Z,2788.00
2018-04-22T09:05:42.161Z,2808.00
2018-04-22T09:06:42.159Z,2832.00
2018-04-22T09:07:42.165Z,2852.00
2018-04-22T09:08:43.441Z,2872.00
2018-04-22T09:09:42.170Z,2884.00
2018-04-22T09:10:42.177Z,2916.00
2018-04-22T09:11:44.831Z,2940.00
2018-04-22T09:12:42.185Z,2940.00
2018-04-22T09:13:42.189Z,2996.00
2018-04-22T09:14:42.422Z,3004.00
2018-04-22T09:15:42.194Z,3016.00
2018-04-22T09:16:42.231Z,2992.00
2018-04-22T09:17:42.197Z,2960.00
2018-04-22T09:18:42.201Z,2988.00
2018-04-22T09:19:42.205Z,2988.00
2018-04-22T09:20:42.783Z,3000.00
2018-04-22T09:21:42.214Z,3008.00
2018-04-22T09:22:42.217Z,3080.00
2018-04-22T09:23:42.222Z,3104.00
2018-04-22T09:24:42.240Z,3164.00
2018-04-22T09:25:42.228Z,3188.00
2018-04-22T09:26:42.231Z,3260.00
2018-04-22T09:27:42.237Z,3392.00
2018-04-22T09:28:42.240Z,3424.00
2018-04-22T09:29:42.243Z,3436.00
2018-04-22T09:30:42.251Z,3396.00
2018-04-22T09:31:42.258Z,3360.00
2018-04-22T09:32:42.256Z,3468.00
2018-04-22T09:33:42.289Z,3528.00
2018-04-22T09:34:42.267Z,3508.00
2018-04-22T09:35:42.269Z,3504.00
2018-04-22T09:36:42.276Z,3520.00
2018-04-22T09:37:42.822Z,3500.00
2018-04-22T09:38:42.281Z,3440.00
2018-04-22T09:39:42.293Z,3388.00
2018-04-22T09:40:42.289Z,3364.00
2018-04-22T09:41:42.296Z,3368.00
2018-04-22T09:42:42.313Z,3376.00
2018-04-22T09:43:42.312Z,3408.00
2018-04-22T09:44:42.308Z,3424.00
2018-04-22T09:45:42.313Z,3476.00
2018-04-22T09:46:42.314Z,3560.00
2018-04-22T09:47:42.319Z,3600.00
2018-04-22T09:48:42.322Z,3544.00
2018-04-22T09:49:42.329Z,3432.00
2018-04-22T09:50:42.332Z,3404.00
2018-04-22T09:51:43.185Z,3372.00
2018-04-22T09:52:42.341Z,3388.00
2018-04-22T09:53:42.349Z,3384.00
2018-04-22T09:54:42.352Z,3388.00
2018-04-22T09:55:42.382Z,3396.00
2018-04-22T09:56:42.362Z,3392.00
2018-04-22T09:57:42.364Z,3372.00
2018-04-22T09:58:42.371Z,3408.00
2018-04-22T09:59:42.376Z,3412.00
2018-04-22T10:00:42.384Z,3400.00
2018-04-22T10:01:42.385Z,3352.00
2018-04-22T10:02:42.389Z,3292.00
2018-04-22T10:03:42.394Z,3236.00
2018-04-22T10:04:42.400Z,3204.00
2018-04-22T10:05:42.405Z,3196.00
2018-04-22T10:06:42.408Z,3196.00
2018-04-22T10:07:42.417Z,3200.00
2018-04-22T10:08:42.422Z,3192.00
2018-04-22T10:09:42.430Z,3164.00
2018-04-22T10:10:42.432Z,3148.00
2018-04-22T10:11:42.435Z,3136.00
2018-04-22T10:12:42.442Z,3128.00
2018-04-22T10:13:42.448Z,3148.00
2018-04-22T10:14:42.450Z,3152.00
2018-04-22T10:15:42.490Z,3152.00
2018-04-22T10:16:42.463Z,3156.00
2018-04-22T10:17:42.477Z,3192.00
2018-04-22T10:18:42.472Z,3196.00
2018-04-22T10:19:42.483Z,3160.00
2018-04-22T10:20:42.490Z,3168.00
2018-04-22T10:21:42.486Z,3192.00
2018-04-22T10:22:42.491Z,3232.00
2018-04-22T10:23:42.518Z,3236.00
2018-04-22T10:24:42.505Z,3256.00
2018-04-22T10:25:42.513Z,3260.00
2018-04-22T10:26:42.516Z,3256.00
2018-04-22T10:27:42.564Z,3272.00
2018-04-22T10:28:42.570Z,3284.00
2018-04-22T10:29:42.531Z,3304.00
2018-04-22T10:30:42.539Z,3320.00
2018-04-22T10:31:42.548Z,3356.00
2018-04-22T10:32:42.572Z,3408.00
2018-04-22T10:33:42.559Z,3424.00
2018-04-22T10:34:42.613Z,3456.00
2018-04-22T10:35:42.566Z,3468.00
2018-04-22T10:36:42.574Z,3860.00
2018-04-22T10:37:42.725Z,3440.00
2018-04-22T10:38:43.022Z,3464.00
2018-04-22T10:39:42.613Z,3496.00
2018-04-22T10:40:42.595Z,3468.00
2018-04-22T10:41:42.617Z,3464.00
2018-04-22T10:42:42.607Z,3468.00
2018-04-22T10:43:42.612Z,3464.00
2018-04-22T10:44:42.619Z,3468.00
2018-04-22T10:45:42.625Z,3472.00
2018-04-22T10:46:42.673Z,3508.00
2018-04-22T10:47:42.634Z,3532.00
2018-04-22T10:48:42.642Z,3500.00
2018-04-22T10:49:42.647Z,3492.00
2018-04-22T10:50:42.657Z,3508.00
2018-04-22T10:51:42.665Z,3520.00
2018-04-22T10:52:42.668Z,3532.00
2018-04-22T10:53:42.674Z,3548.00
2018-04-22T10:54:42.681Z,3628.00
2018-04-22T10:55:42.687Z,3600.00
2018-04-22T10:56:42.693Z,3652.00
2018-04-22T10:57:42.707Z,3664.00
2018-04-22T10:58:42.712Z,3632.00
2018-04-22T10:59:42.714Z,3584.00
2018-04-22T11:00:42.717Z,3684.00
2018-04-22T11:01:42.723Z,3588.00
2018-04-22T11:02:42.730Z,3572.00
2018-04-22T11:03:42.738Z,3596.00
2018-04-22T11:04:42.743Z,3572.00
2018-04-22T11:05:42.748Z,3636.00
2018-04-22T11:06:42.756Z,3588.00
2018-04-22T11:07:42.761Z,3608.00
2018-04-22T11:08:42.771Z,3532.00
2018-04-22T11:09:42.773Z,3512.00
2018-04-22T11:10:42.778Z,3524.00
2018-04-22T11:11:42.796Z,3500.00
2018-04-22T11:12:42.790Z,3500.00
2018-04-22T11:13:42.799Z,3520.00
2018-04-22T11:14:42.822Z,3508.00
2018-04-22T11:15:42.809Z,3512.00
2018-04-22T11:16:42.817Z,3504.00
2018-04-22T11:17:42.822Z,3576.00
2018-04-22T11:18:42.827Z,3572.00
2018-04-22T11:19:42.833Z,3544.00
2018-04-22T11:20:42.842Z,3544.00
2018-04-22T11:21:42.846Z,3548.00
2018-04-22T11:22:42.852Z,3548.00
2018-04-22T11:23:42.860Z,3444.00
2018-04-22T11:24:42.867Z,3672.00
2018-04-22T11:25:42.875Z,3576.00
2018-04-22T11:26:42.879Z,3536.00
2018-04-22T11:27:42.885Z,3496.00
2018-04-22T11:28:42.899Z,3476.00
2018-04-22T11:29:42.895Z,3448.00
2018-04-22T11:30:42.908Z,3484.00
2018-04-22T11:31:42.913Z,3472.00
2018-04-22T11:32:42.919Z,3480.00
2018-04-22T11:33:42.929Z,3500.00
2018-04-22T11:34:42.930Z,3524.00
2018-04-22T11:35:42.937Z,3544.00
2018-04-22T11:36:42.941Z,3588.00
2018-04-22T11:37:42.951Z,3588.00
2018-04-22T11:38:42.956Z,3580.00
2018-04-22T11:39:42.964Z,3652.00
2018-04-22T11:40:42.975Z,3688.00
2018-04-22T11:41:42.974Z,3720.00
2018-04-22T11:42:42.981Z,3760.00
2018-04-22T11:43:42.986Z,3836.00
2018-04-22T11:44:42.994Z,3872.00
2018-04-22T11:45:43.003Z,3920.00
2018-04-22T11:46:43.008Z,3988.00
2018-04-22T11:47:43.026Z,4104.00
2018-04-22T11:48:43.020Z,3752.00
2018-04-22T11:49:43.026Z,4140.00
2018-04-22T11:50:43.052Z,4140.00
2018-04-22T11:51:43.040Z,4292.00
2018-04-22T11:52:43.046Z,4380.00
2018-04-22T11:53:43.054Z,3796.00
2018-04-22T11:54:43.057Z,4688.00
2018-04-22T11:55:43.093Z,4716.00
2018-04-22T11:56:43.075Z,4256.00
2018-04-22T11:57:43.078Z,3936.00
2018-04-22T11:58:43.085Z,3784.00
2018-04-22T11:59:43.091Z,3876.00
2018-04-22T12:00:43.105Z,3948.00
2018-04-22T12:01:43.155Z,3996.00
2018-04-22T12:02:43.114Z,4628.00
2018-04-22T12:03:43.117Z,4592.00
2018-04-22T12:04:43.126Z,4276.00
2018-04-22T12:05:43.132Z,3884.00
2018-04-22T12:06:43.142Z,4336.00
2018-04-22T12:07:43.145Z,4304.00
2018-04-22T12:08:43.153Z,4424.00
2018-04-22T12:09:43.159Z,3984.00
2018-04-22T12:10:43.164Z,3952.00
2018-04-22T12:11:43.174Z,3784.00
2018-04-22T12:12:43.180Z,3940.00
2018-04-22T12:13:43.189Z,4764.00
2018-04-22T12:14:43.214Z,4736.00
2018-04-22T12:15:43.201Z,4788.00
2018-04-22T12:16:43.214Z,4580.00
2018-04-22T12:17:43.215Z,4240.00
2018-04-22T12:18:43.221Z,4108.00
2018-04-22T12:19:43.231Z,4136.00
2018-04-22T12:20:43.389Z,4052.00
2018-04-22T12:21:43.285Z,3808.00
2018-04-22T12:22:43.248Z,3764.00
2018-04-22T12:23:43.256Z,3684.00
2018-04-22T12:24:43.273Z,3548.00
2018-04-22T12:25:43.371Z,3120.00
2018-04-22T12:26:43.281Z,2984.00
2018-04-22T12:27:43.292Z,2636.00
2018-04-22T12:28:43.295Z,2272.00
2018-04-22T12:29:43.302Z,2336.00
2018-04-22T12:30:43.313Z,2572.00